Torda, Románia

2014 Augusztus 23 06:33 AM (EEST időzóna) (GMT +0300)
ICLUJCLU2 | Change Station
CLOSE
Current Station
Personal Weather Stations
Location: Cluj-Napoca - Aspar.ro, Cluj
Elevation: 1010 ft
Közeli meteorológiai állomások

Elev 1010 ft 46.78 °N, 23.72 °E | Updated 10 minutes ago

Clear
Derült
51.6 °F
Hőérzet 51.6 °F
N
0.0
Szél: változó Szél: from délnyugati
Gusts 0.0 mph

Ma
High -- | Low -- °F
--% Csapadék valószínű
Tegnapi
High -- | Low -- °F
Precip. -- hvlyk.
6:32 AM 8:21 PM
Fogyó holdsarló, 5% visible
Légnyomás 30.06 hvlyk.
Látótávolság -9999.0 mérföld
Felhők
Harmatpont 50 °F
Páratartalom 93%
Rainfall 0.00 hvlyk.
Hóréteg vastagsága Not available.
UV Not available.
Pollen Not available.
A levegő minősége Not available.
Flu Activity Not available.
METAR LRCL 230200Z 07002KT CAVOK 11/10 Q1018

More Conditions Fewer Conditions

Légnyomás 30.06 hvlyk.
Látótávolság -9999.0 mérföld
Felhők
Harmatpont 50 °F
Páratartalom 93%
Rainfall 0.00 hvlyk.
Hóréteg vastagsága Not available.
UV Not available.
Pollen Not available.
A levegő minősége Not available.
Flu Activity Not available.
METAR LRCL 230200Z 07002KT CAVOK 11/10 Q1018

More Conditions Fewer Conditions

10-Day Weather Forecast

Almanac

Csillagászat

Aug. 23, 2014 Kel Nyugszik
Tényleges idő 6:32 AM EEST 8:21 PM EEST
Civil alkony 6:00 AM EEST 8:53 PM EEST
Tengerészeti alkony 5:21 AM EEST 9:32 PM EEST
Csillagászati alkony 4:38 AM EEST 10:15 PM EEST
Hold 4:29 AM EEST 6:56 PM EEST
Látható fény időtartama 14h 52m
A nap hossza
13h 48m
Tomorrow will be 3m 5s shorter.
Fogyó holdsarló, 5% of the Moon is Illuminated
Aug 22
Fogyó holdsarló
Aug 25
Új
Sep 2
első negyed
Sep 8
telihold
Sep 15
utolsó negyed

Yesterday's Extremes

Country Highs Country Lows

Community

WunderPhotos

Upload Photos

1,746,352 Fotók feltöltve.

WunderBlogs® & News

Nearby

A levegő minősége

Not available.

Hóréteg vastagsága

Not available.

Earthquake Activity

város Distance Mag. Time & Date
No recent earthquake activity has been reported nearby.
Minimum magnitude displayed is 2.5.

Coastal Water Temperatures

Hely Hőmérséklet
No Stations Reporting

Közeli meteorológiai állomások